createdAt,value
2022-11-27T00:02:23.005Z,20.75
2022-11-27T00:04:50.070Z,21.45
2022-11-27T00:07:16.785Z,23.27
2022-11-27T00:09:43.559Z,24.58
2022-11-27T00:12:10.232Z,26.52
2022-11-27T00:14:36.734Z,28.92
2022-11-27T00:17:03.317Z,22.05
2022-11-27T00:19:29.896Z,23.00
2022-11-27T00:21:56.551Z,23.33
2022-11-27T00:24:23.064Z,22.05
2022-11-27T00:26:49.916Z,49.58
2022-11-27T00:29:16.523Z,20.17
2022-11-27T00:31:43.266Z,19.67
2022-11-27T00:34:10.910Z,20.10
2022-11-27T00:36:38.566Z,21.73
2022-11-27T00:39:06.059Z,21.52
2022-11-27T00:41:33.302Z,21.38
2022-11-27T00:43:59.899Z,23.20
2022-11-27T00:46:29.791Z,22.83
2022-11-27T00:48:57.815Z,22.70
2022-11-27T00:51:25.672Z,23.77
2022-11-27T00:53:53.058Z,22.52
2022-11-27T00:56:23.867Z,26.60
2022-11-27T00:58:50.833Z,30.17
2022-11-27T01:01:23.308Z,26.70
2022-11-27T01:03:50.843Z,25.23
2022-11-27T01:06:19.266Z,26.02
2022-11-27T01:08:46.547Z,25.67
2022-11-27T01:11:21.602Z,26.77
2022-11-27T01:13:49.189Z,24.65
2022-11-27T01:16:19.195Z,23.23
2022-11-27T01:18:47.167Z,23.25
2022-11-27T01:21:16.681Z,23.10
2022-11-27T01:23:43.386Z,26.05
2022-11-27T01:26:11.263Z,28.27
2022-11-27T01:28:39.756Z,26.05
2022-11-27T01:31:09.069Z,25.85
2022-11-27T01:33:35.770Z,29.42
2022-11-27T01:36:07.116Z,29.27
2022-11-27T01:38:34.367Z,26.80
2022-11-27T01:41:01.710Z,24.58
2022-11-27T01:43:50.969Z,28.73
2022-11-27T01:46:26.708Z,32.60
2022-11-27T01:48:56.022Z,30.75
2022-11-27T01:51:23.126Z,30.48
2022-11-27T01:53:51.971Z,31.05
2022-11-27T01:56:19.415Z,31.20
2022-11-27T01:58:46.697Z,31.00
2022-11-27T02:01:13.956Z,29.27
2022-11-27T02:03:40.563Z,27.25
2022-11-27T02:06:07.390Z,28.67
2022-11-27T02:08:34.017Z,28.83
2022-11-27T02:11:00.485Z,28.98
2022-11-27T02:13:33.858Z,28.85
2022-11-27T02:16:34.674Z,31.80
2022-11-27T02:19:23.642Z,29.60
2022-11-27T02:21:57.538Z,29.77
2022-11-27T02:24:41.452Z,31.65
2022-11-27T02:27:26.840Z,31.77
2022-11-27T02:29:59.817Z,32.40
2022-11-27T02:32:26.398Z,31.77
2022-11-27T02:35:23.311Z,32.65
2022-11-27T02:37:56.645Z,31.58
2022-11-27T02:40:41.783Z,31.70
2022-11-27T02:43:13.706Z,29.10
2022-11-27T02:45:46.810Z,32.70
2022-11-27T02:48:16.704Z,34.60
2022-11-27T02:50:45.822Z,32.88
2022-11-27T02:53:19.422Z,31.80
2022-11-27T02:55:48.419Z,33.38
2022-11-27T02:58:18.137Z,32.88
2022-11-27T03:00:47.207Z,31.80
2022-11-27T03:03:18.515Z,30.25
2022-11-27T03:05:48.487Z,22.65
2022-11-27T03:08:41.468Z,29.05
2022-11-27T03:11:13.927Z,27.70
2022-11-27T03:13:44.970Z,19.35
2022-11-27T03:16:24.087Z,28.88
2022-11-27T03:19:16.113Z,19.08
2022-11-27T03:21:47.812Z,20.17
2022-11-27T03:24:14.623Z,16.60
2022-11-27T03:26:41.827Z,18.85
2022-11-27T03:29:16.643Z,26.90
2022-11-27T03:31:43.945Z,28.42
2022-11-27T03:34:11.384Z,28.67
2022-11-27T03:36:38.111Z,22.05
2022-11-27T03:39:05.000Z,17.00
2022-11-27T03:41:34.524Z,13.90
2022-11-27T03:44:33.494Z,13.18
2022-11-27T03:47:37.628Z,15.25
2022-11-27T03:50:32.107Z,15.43
2022-11-27T03:53:37.626Z,16.92
2022-11-27T03:56:18.295Z,15.88
2022-11-27T03:58:54.811Z,18.60
2022-11-27T04:01:25.211Z,16.27
2022-11-27T04:03:52.183Z,16.05
2022-11-27T04:06:18.769Z,17.63
2022-11-27T04:08:47.337Z,12.73
2022-11-27T04:11:14.814Z,19.50
2022-11-27T04:13:41.572Z,15.27
2022-11-27T04:16:08.779Z,13.50
2022-11-27T04:18:35.436Z,23.17
2022-11-27T04:21:01.927Z,23.13
2022-11-27T04:23:28.507Z,24.77
2022-11-27T04:25:55.006Z,20.88
2022-11-27T04:28:21.551Z,22.70
2022-11-27T04:30:53.767Z,22.75
2022-11-27T04:35:47.068Z,26.30
2022-11-27T04:38:13.804Z,20.42
2022-11-27T04:40:40.326Z,23.70
2022-11-27T04:43:07.066Z,24.98
2022-11-27T04:45:33.682Z,22.70
2022-11-27T04:48:00.222Z,23.48
2022-11-27T04:50:26.837Z,18.30
2022-11-27T04:52:53.458Z,18.55
2022-11-27T04:55:19.967Z,17.83
2022-11-27T04:57:46.581Z,16.88
2022-11-27T05:00:13.814Z,19.95
2022-11-27T05:02:40.568Z,17.83
2022-11-27T05:05:07.471Z,16.02
2022-11-27T05:07:34.143Z,18.15
2022-11-27T05:10:00.822Z,19.67
2022-11-27T05:12:27.481Z,20.58
2022-11-27T05:14:54.004Z,27.50
2022-11-27T05:17:20.617Z,20.90
2022-11-27T05:19:47.259Z,17.65
2022-11-27T05:22:13.954Z,22.73
2022-11-27T05:24:40.821Z,27.83
2022-11-27T05:27:07.628Z,18.95
2022-11-27T05:29:34.370Z,18.08
2022-11-27T05:32:01.012Z,41.38
2022-11-27T05:34:27.511Z,47.08
2022-11-27T05:36:54.931Z,33.58
2022-11-27T05:39:22.053Z,35.65
2022-11-27T05:41:48.603Z,43.20
2022-11-27T05:44:15.477Z,32.78
2022-11-27T05:46:46.079Z,22.88
2022-11-27T05:51:31.674Z,16.80
2022-11-27T05:53:58.222Z,21.23
2022-11-27T05:56:24.713Z,33.00
2022-11-27T05:58:52.023Z,35.60
2022-11-27T06:01:19.301Z,25.90
2022-11-27T06:03:45.979Z,54.78
2022-11-27T06:06:15.926Z,59.95
2022-11-27T06:08:42.953Z,34.05
2022-11-27T06:11:18.167Z,23.85
2022-11-27T06:13:46.071Z,24.98
2022-11-27T06:16:15.732Z,23.85
2022-11-27T06:18:43.274Z,21.60
2022-11-27T06:21:14.922Z,24.92
2022-11-27T06:23:43.094Z,18.70
2022-11-27T06:26:21.936Z,25.45
2022-11-27T06:28:49.798Z,25.45
2022-11-27T06:31:19.057Z,24.42
2022-11-27T06:33:50.158Z,23.98
2022-11-27T06:36:17.511Z,23.20
2022-11-27T06:38:44.806Z,24.48
2022-11-27T06:41:14.546Z,28.38
2022-11-27T06:43:41.261Z,31.08
2022-11-27T06:46:12.440Z,34.25
2022-11-27T06:48:39.385Z,27.20
2022-11-27T06:51:07.506Z,27.58
2022-11-27T06:53:36.414Z,32.70
2022-11-27T06:56:04.742Z,29.27
2022-11-27T06:58:31.569Z,28.65
2022-11-27T07:01:03.557Z,30.35
2022-11-27T07:03:30.683Z,29.85
2022-11-27T07:06:01.715Z,31.27
2022-11-27T07:08:28.556Z,31.73
2022-11-27T07:11:01.958Z,32.53
2022-11-27T07:13:30.467Z,32.72
2022-11-27T07:16:01.644Z,33.90
2022-11-27T07:18:29.607Z,38.15
2022-11-27T07:20:56.992Z,34.50
2022-11-27T07:23:23.974Z,30.25
2022-11-27T07:25:50.502Z,33.17
2022-11-27T07:28:19.035Z,35.03
2022-11-27T07:30:45.758Z,32.47
2022-11-27T07:33:12.304Z,35.65
2022-11-27T07:35:38.862Z,33.42
2022-11-27T07:38:05.459Z,32.72
2022-11-27T07:40:31.950Z,33.95
2022-11-27T07:43:00.482Z,78.93
2022-11-27T07:45:27.099Z,52.83
2022-11-27T07:47:53.775Z,44.03
2022-11-27T07:50:20.373Z,39.50
2022-11-27T07:52:47.050Z,42.05
2022-11-27T07:55:13.824Z,37.47
2022-11-27T07:57:40.723Z,37.25
2022-11-27T08:00:08.002Z,39.55
2022-11-27T08:02:34.614Z,39.80
2022-11-27T08:05:01.193Z,41.53
2022-11-27T08:07:28.828Z,40.97
2022-11-27T08:09:57.569Z,38.88
2022-11-27T08:12:25.407Z,38.10
2022-11-27T08:14:51.954Z,37.38
2022-11-27T08:17:18.669Z,36.83
2022-11-27T08:19:45.254Z,35.53
2022-11-27T08:22:16.990Z,35.10
2022-11-27T08:24:44.214Z,34.15
2022-11-27T08:27:11.727Z,34.45
2022-11-27T08:29:38.696Z,35.03
2022-11-27T08:32:06.291Z,31.73
2022-11-27T08:34:33.050Z,37.97
2022-11-27T08:36:59.561Z,42.25
2022-11-27T08:39:27.018Z,59.97
2022-11-27T08:41:54.325Z,66.63
2022-11-27T08:44:21.080Z,59.72
2022-11-27T08:46:47.626Z,43.10
2022-11-27T08:49:14.249Z,38.53
2022-11-27T08:51:40.843Z,40.25
2022-11-27T08:54:08.195Z,38.28
2022-11-27T08:56:36.077Z,36.67
2022-11-27T08:59:02.818Z,31.27
2022-11-27T09:01:31.855Z,33.60
2022-11-27T09:03:59.663Z,33.35
2022-11-27T09:06:30.033Z,37.42
2022-11-27T09:09:01.114Z,32.30
2022-11-27T09:11:29.752Z,33.70
2022-11-27T09:13:56.352Z,32.85
2022-11-27T09:16:23.158Z,30.70
2022-11-27T09:18:51.715Z,29.15
2022-11-27T09:21:21.401Z,27.90
2022-11-27T09:23:48.310Z,28.75
2022-11-27T09:26:16.824Z,29.20
2022-11-27T09:28:44.578Z,40.08
2022-11-27T09:31:14.014Z,29.50
2022-11-27T09:33:41.877Z,29.42
2022-11-27T09:36:11.819Z,26.63
2022-11-27T09:38:38.758Z,24.70
2022-11-27T09:41:11.762Z,25.35
2022-11-27T09:43:51.259Z,25.52
2022-11-27T09:46:29.020Z,27.30
2022-11-27T09:48:58.928Z,29.35
2022-11-27T09:51:40.243Z,25.75
2022-11-27T09:54:17.749Z,28.02
2022-11-27T09:56:48.106Z,29.58
2022-11-27T09:59:22.174Z,32.33
2022-11-27T10:01:51.068Z,33.47
2022-11-27T10:04:19.764Z,32.20
2022-11-27T10:06:55.176Z,32.67
2022-11-27T10:09:43.498Z,31.55
2022-11-27T10:12:34.398Z,29.73
2022-11-27T10:15:06.978Z,30.50
2022-11-27T10:18:00.546Z,34.10
2022-11-27T10:20:31.762Z,27.23
2022-11-27T10:23:04.534Z,29.50
2022-11-27T10:25:36.741Z,27.55
2022-11-27T10:28:21.727Z,29.80
2022-11-27T10:33:25.528Z,33.75
2022-11-27T10:35:52.931Z,56.15
2022-11-27T10:38:23.492Z,39.58
2022-11-27T10:41:09.764Z,32.20
2022-11-27T10:43:38.739Z,33.15
2022-11-27T10:46:13.930Z,32.55
2022-11-27T10:48:41.014Z,35.20
2022-11-27T10:51:20.959Z,30.15
2022-11-27T10:53:52.216Z,30.15
2022-11-27T10:56:32.068Z,31.13
2022-11-27T10:59:05.858Z,32.85
2022-11-27T11:02:03.435Z,27.02
2022-11-27T11:04:37.890Z,24.92
2022-11-27T11:07:24.989Z,27.20
2022-11-27T11:09:52.794Z,25.92
2022-11-27T11:12:21.919Z,26.15
2022-11-27T11:14:59.307Z,27.15
2022-11-27T11:17:37.107Z,26.02
2022-11-27T11:20:22.410Z,29.10
2022-11-27T11:22:49.331Z,36.38
2022-11-27T11:25:21.248Z,26.92
2022-11-27T11:27:50.171Z,25.17
2022-11-27T11:30:26.222Z,24.23
2022-11-27T11:33:00.692Z,23.65
2022-11-27T11:35:36.498Z,23.45
2022-11-27T11:38:06.131Z,24.65
2022-11-27T11:40:34.778Z,27.55
2022-11-27T11:43:06.483Z,25.65
2022-11-27T11:45:35.040Z,25.50
2022-11-27T11:48:22.892Z,24.10
2022-11-27T11:51:07.100Z,25.20
2022-11-27T11:53:41.027Z,26.88
2022-11-27T11:56:26.123Z,25.52
2022-11-27T11:59:00.996Z,30.60
2022-11-27T12:02:04.429Z,27.20
2022-11-27T12:05:08.866Z,26.15
2022-11-27T12:07:41.443Z,26.05
2022-11-27T12:10:22.597Z,26.55
2022-11-27T12:13:14.767Z,25.83
2022-11-27T12:16:07.477Z,30.40
2022-11-27T12:18:47.277Z,28.48
2022-11-27T12:21:25.771Z,30.42
2022-11-27T12:24:10.131Z,32.10
2022-11-27T12:26:48.575Z,29.73
2022-11-27T12:29:33.545Z,28.50
2022-11-27T12:32:11.487Z,30.42
2022-11-27T12:34:44.070Z,27.75
2022-11-27T12:37:28.180Z,28.13
2022-11-27T12:40:35.230Z,29.58
2022-11-27T12:43:27.134Z,30.45
2022-11-27T12:46:07.055Z,28.58
2022-11-27T12:48:36.560Z,27.08
2022-11-27T12:51:08.782Z,28.08
2022-11-27T12:56:16.745Z,28.63
2022-11-27T12:58:48.452Z,27.52
2022-11-27T13:01:39.530Z,27.70
2022-11-27T13:04:34.585Z,26.92
2022-11-27T13:07:18.084Z,25.33
2022-11-27T13:10:02.212Z,23.75
2022-11-27T13:12:42.927Z,27.00
2022-11-27T13:15:30.358Z,24.27
2022-11-27T13:18:14.095Z,23.88
2022-11-27T13:20:41.791Z,27.73
2022-11-27T13:23:08.457Z,24.75
2022-11-27T13:25:40.847Z,29.20
2022-11-27T13:28:09.227Z,34.22
2022-11-27T13:30:38.107Z,34.47
2022-11-27T13:33:07.052Z,27.25
2022-11-27T13:35:42.016Z,29.35
2022-11-27T13:38:21.021Z,34.67
2022-11-27T13:40:50.776Z,36.15
2022-11-27T13:43:34.240Z,31.98
2022-11-27T13:46:07.076Z,30.33
2022-11-27T13:48:38.566Z,26.85
2022-11-27T13:51:07.814Z,26.00
2022-11-27T13:53:42.210Z,25.77
2022-11-27T13:56:09.839Z,25.27
2022-11-27T13:58:41.607Z,25.25
2022-11-27T14:01:18.448Z,28.60
2022-11-27T14:03:45.723Z,35.75
2022-11-27T14:06:21.139Z,33.78
2022-11-27T14:09:07.298Z,33.15
2022-11-27T14:11:45.163Z,32.75
2022-11-27T14:14:19.962Z,32.78
2022-11-27T14:16:58.887Z,29.95
2022-11-27T14:19:34.577Z,28.40
2022-11-27T14:24:36.437Z,28.63
2022-11-27T14:27:16.523Z,24.60
2022-11-27T14:29:43.411Z,28.63
2022-11-27T14:32:13.714Z,26.85
2022-11-27T14:34:40.885Z,24.67
2022-11-27T14:39:41.836Z,25.65
2022-11-27T14:42:30.633Z,25.45
2022-11-27T14:45:15.255Z,28.48
2022-11-27T14:47:48.755Z,29.00
2022-11-27T14:50:16.212Z,35.80
2022-11-27T14:52:45.222Z,34.40
2022-11-27T14:55:16.179Z,36.60
2022-11-27T14:57:43.883Z,37.30
2022-11-27T15:00:27.054Z,36.70
2022-11-27T15:02:54.481Z,37.42
2022-11-27T15:05:27.439Z,40.20
2022-11-27T15:07:57.328Z,44.90
2022-11-27T15:10:33.636Z,58.28
2022-11-27T15:13:02.333Z,49.90
2022-11-27T15:15:34.656Z,46.45
2022-11-27T15:18:07.799Z,48.75
2022-11-27T15:20:43.455Z,46.92
2022-11-27T15:23:19.570Z,46.80
2022-11-27T15:25:50.124Z,47.13
2022-11-27T15:28:25.669Z,47.92
2022-11-27T15:30:52.329Z,45.00
2022-11-27T15:33:30.519Z,53.03
2022-11-27T15:36:19.010Z,59.97
2022-11-27T15:38:46.631Z,55.67
2022-11-27T15:41:24.993Z,49.17
2022-11-27T15:44:11.814Z,46.33
2022-11-27T15:46:41.626Z,46.90
2022-11-27T15:49:13.962Z,48.47
2022-11-27T15:51:41.691Z,48.08
2022-11-27T15:54:08.238Z,50.25
2022-11-27T15:56:34.912Z,52.10
2022-11-27T15:59:01.630Z,47.78
2022-11-27T16:01:28.214Z,44.13
2022-11-27T16:06:23.400Z,46.35
2022-11-27T16:09:08.441Z,51.60
2022-11-27T16:11:35.388Z,53.72
2022-11-27T16:14:02.043Z,62.78
2022-11-27T16:16:29.736Z,61.13
2022-11-27T16:18:59.649Z,82.00
2022-11-27T16:21:29.602Z,87.90
2022-11-27T16:24:03.245Z,65.18
2022-11-27T16:26:30.234Z,57.08
2022-11-27T16:28:56.921Z,52.85
2022-11-27T16:31:24.777Z,54.55
2022-11-27T16:33:51.707Z,48.90
2022-11-27T16:36:21.554Z,52.33
2022-11-27T16:38:49.129Z,54.13
2022-11-27T16:41:19.119Z,50.75
2022-11-27T16:43:48.396Z,45.75
2022-11-27T16:46:21.096Z,45.55
2022-11-27T16:48:49.578Z,44.75
2022-11-27T16:51:29.046Z,41.80
2022-11-27T16:53:57.600Z,44.00
2022-11-27T16:56:26.617Z,43.25
2022-11-27T16:58:58.078Z,43.70
2022-11-27T17:01:30.718Z,42.83
2022-11-27T17:03:57.945Z,44.33
2022-11-27T17:06:27.230Z,48.50
2022-11-27T17:08:54.509Z,47.20
2022-11-27T17:11:25.172Z,44.63
2022-11-27T17:13:55.859Z,43.03
2022-11-27T17:16:22.736Z,44.72
2022-11-27T17:18:49.927Z,43.70
2022-11-27T17:21:24.364Z,48.13
2022-11-27T17:23:51.803Z,47.13
2022-11-27T17:26:20.528Z,48.75
2022-11-27T17:28:47.455Z,45.92
2022-11-27T17:31:19.691Z,43.25
2022-11-27T17:33:47.703Z,41.55
2022-11-27T17:36:15.098Z,41.63
2022-11-27T17:38:42.077Z,48.65
2022-11-27T17:41:11.134Z,50.97
2022-11-27T17:43:39.146Z,46.80
2022-11-27T17:46:16.472Z,49.75
2022-11-27T17:48:43.902Z,47.17
2022-11-27T17:51:11.039Z,49.78
2022-11-27T17:53:40.383Z,46.03
2022-11-27T17:56:10.922Z,47.60
2022-11-27T17:58:38.676Z,45.92
2022-11-27T18:01:07.560Z,39.83
2022-11-27T18:03:36.680Z,43.90
2022-11-27T18:06:05.313Z,44.25
2022-11-27T18:08:36.110Z,43.42
2022-11-27T18:11:09.327Z,39.63
2022-11-27T18:13:36.608Z,42.35
2022-11-27T18:16:08.588Z,41.40
2022-11-27T18:18:35.799Z,47.60
2022-11-27T18:21:08.616Z,46.35
2022-11-27T18:23:36.258Z,43.35
2022-11-27T18:26:11.410Z,41.88
2022-11-27T18:28:39.395Z,44.03
2022-11-27T18:31:07.780Z,43.97
2022-11-27T18:33:34.878Z,45.90
2022-11-27T18:36:04.008Z,44.13
2022-11-27T18:38:31.982Z,45.20
2022-11-27T18:41:07.786Z,46.13
2022-11-27T18:43:34.820Z,45.60
2022-11-27T18:46:02.014Z,45.53
2022-11-27T18:48:29.087Z,45.75
2022-11-27T18:51:09.183Z,42.13
2022-11-27T18:53:36.542Z,43.25
2022-11-27T18:56:07.603Z,41.53
2022-11-27T19:01:08.401Z,40.33
2022-11-27T19:03:41.576Z,41.97
2022-11-27T19:06:14.199Z,46.15
2022-11-27T19:08:41.415Z,44.92
2022-11-27T19:11:10.478Z,43.67
2022-11-27T19:13:38.544Z,46.13
2022-11-27T19:16:13.812Z,44.97
2022-11-27T19:18:41.620Z,41.35
2022-11-27T19:21:13.807Z,47.22
2022-11-27T19:26:10.731Z,47.28
2022-11-27T19:28:38.405Z,52.00
2022-11-27T19:31:07.306Z,49.60
2022-11-27T19:33:37.665Z,52.25
2022-11-27T19:36:23.572Z,49.40
2022-11-27T19:38:55.493Z,52.13
2022-11-27T19:41:23.021Z,47.78
2022-11-27T19:43:49.928Z,50.78
2022-11-27T19:46:37.799Z,50.00
2022-11-27T19:49:19.342Z,51.17
2022-11-27T19:51:51.225Z,38.28
2022-11-27T19:54:20.602Z,50.30
2022-11-27T19:56:54.097Z,51.15
2022-11-27T19:59:26.037Z,49.75
2022-11-27T20:01:55.030Z,53.45
2022-11-27T20:04:26.559Z,55.60
2022-11-27T20:07:03.982Z,56.50
2022-11-27T20:09:31.023Z,55.25
2022-11-27T20:12:02.165Z,55.10
2022-11-27T20:14:29.695Z,50.67
2022-11-27T20:17:01.831Z,48.92
2022-11-27T20:19:30.179Z,47.67
2022-11-27T20:22:00.650Z,46.72
2022-11-27T20:24:28.935Z,48.22
2022-11-27T20:27:02.895Z,45.05
2022-11-27T20:29:39.497Z,46.70
2022-11-27T20:32:14.996Z,47.28
2022-11-27T20:34:42.398Z,47.63
2022-11-27T20:37:14.237Z,50.50
2022-11-27T20:39:44.123Z,47.42
2022-11-27T20:42:22.234Z,56.60
2022-11-27T20:44:52.301Z,48.33
2022-11-27T20:47:18.948Z,56.70
2022-11-27T20:49:45.776Z,53.95
2022-11-27T20:52:15.733Z,57.38
2022-11-27T20:54:57.706Z,58.33
2022-11-27T20:57:24.747Z,56.58
2022-11-27T20:59:51.528Z,51.58
2022-11-27T21:02:19.062Z,51.42
2022-11-27T21:04:45.766Z,54.20
2022-11-27T21:07:14.664Z,52.75
2022-11-27T21:09:41.797Z,52.63
2022-11-27T21:12:10.674Z,53.15
2022-11-27T21:14:37.429Z,52.72
2022-11-27T21:17:05.252Z,49.45
2022-11-27T21:19:35.197Z,49.13
2022-11-27T21:22:02.004Z,49.92
2022-11-27T21:24:29.138Z,46.63
2022-11-27T21:26:56.299Z,48.03
2022-11-27T21:29:25.420Z,47.60
2022-11-27T21:31:53.865Z,47.33
2022-11-27T21:34:20.804Z,47.28
2022-11-27T21:36:48.364Z,50.60
2022-11-27T21:39:20.856Z,44.35
2022-11-27T21:41:53.716Z,45.25
2022-11-27T21:44:22.491Z,67.55
2022-11-27T21:46:50.208Z,53.45
2022-11-27T21:49:19.912Z,56.00
2022-11-27T21:51:50.063Z,52.83
2022-11-27T21:54:21.414Z,45.67
2022-11-27T21:56:51.613Z,43.20
2022-11-27T21:59:18.586Z,39.78
2022-11-27T22:01:45.876Z,41.60
2022-11-27T22:04:13.502Z,45.85
2022-11-27T22:06:42.947Z,43.55
2022-11-27T22:09:14.994Z,44.00
2022-11-27T22:11:42.953Z,43.35
2022-11-27T22:14:14.581Z,45.05
2022-11-27T22:16:45.686Z,42.40
2022-11-27T22:19:14.070Z,40.88
2022-11-27T22:21:40.843Z,40.97
2022-11-27T22:24:12.220Z,41.72
2022-11-27T22:26:43.457Z,42.13
2022-11-27T22:29:10.048Z,39.80
2022-11-27T22:31:37.029Z,38.85
2022-11-27T22:34:04.147Z,36.15
2022-11-27T22:36:33.021Z,40.63
2022-11-27T22:39:03.194Z,38.17
2022-11-27T22:41:32.237Z,39.50
2022-11-27T22:44:00.360Z,39.97
2022-11-27T22:46:35.366Z,41.63
2022-11-27T22:49:06.043Z,34.28
2022-11-27T22:51:35.116Z,36.88
2022-11-27T22:54:03.593Z,40.22
2022-11-27T22:56:33.512Z,38.78
2022-11-27T22:59:24.789Z,43.67
2022-11-27T23:01:48.623Z,42.25
2022-11-27T23:04:16.234Z,51.33
2022-11-27T23:06:47.789Z,54.90
2022-11-27T23:09:15.797Z,41.00
2022-11-27T23:11:42.298Z,41.03
2022-11-27T23:14:09.138Z,37.08
2022-11-27T23:16:35.778Z,40.33
2022-11-27T23:19:02.431Z,38.25
2022-11-27T23:21:28.926Z,37.00
2022-11-27T23:23:55.479Z,39.25
2022-11-27T23:26:23.955Z,37.00
2022-11-27T23:28:53.360Z,38.63
2022-11-27T23:31:30.729Z,38.38
2022-11-27T23:33:58.826Z,37.58
2022-11-27T23:36:25.767Z,42.53
2022-11-27T23:38:52.671Z,41.83
2022-11-27T23:41:22.158Z,42.55
2022-11-27T23:43:49.661Z,38.90
2022-11-27T23:46:18.750Z,39.63
2022-11-27T23:48:46.059Z,39.33
2022-11-27T23:51:18.383Z,37.78
2022-11-27T23:53:45.125Z,41.75
2022-11-27T23:56:17.602Z,41.97
2022-11-27T23:58:47.284Z,41.78
